Time;durP1;ratioP1;P1;durP2;ratioP2;P2;SDS_P1;SDS_P2;PMS_P1;PMS_P2;Temp;Humidity;BMP_temperature;BMP_pressure;BME280_temperature;BME280_humidity;BME280_pressure;Samples;Min_cycle;Max_cycle;Signal;HPM_P1;HPM_P2
2021/05/22 00:01:18;;;;;;;6.03;1.20;;;;;;;18.40;54.90;101423.78;5069550;28;20116;-64
2021/05/22 00:03:46;;;;;;;5.82;1.88;;;;;;;18.38;54.86;101410.44;5069123;28;20575;-65
2021/05/22 00:06:13;;;;;;;7.35;1.98;;;;;;;18.26;55.61;101415.84;5069050;28;20446;-65
2021/05/22 00:08:40;;;;;;;6.13;1.73;;;;;;;18.20;55.92;101418.56;5068897;28;20036;-65
2021/05/22 00:11:08;;;;;;;8.30;1.75;;;;;;;18.20;56.02;101424.78;5068924;28;20127;-65
2021/05/22 00:13:35;;;;;;;7.05;2.42;;;;;;;18.17;56.17;101419.47;5068959;28;20496;-65
2021/05/22 00:16:02;;;;;;;9.30;2.30;;;;;;;18.21;56.06;101415.00;5068152;28;20444;-65
2021/05/22 00:18:29;;;;;;;8.50;2.10;;;;;;;18.22;55.87;101422.13;5067928;28;20052;-65
2021/05/22 00:20:57;;;;;;;3.65;1.42;;;;;;;18.19;56.01;101427.47;5069242;28;20047;-65
2021/05/22 00:23:24;;;;;;;4.15;1.55;;;;;;;18.20;55.81;101419.44;5069146;28;20036;-65
2021/05/22 00:25:52;;;;;;;4.18;1.60;;;;;;;18.18;56.24;101412.34;5068831;28;20051;-65
2021/05/22 00:28:20;;;;;;;4.10;1.52;;;;;;;18.21;56.17;101407.88;5068215;28;20037;-65
2021/05/22 00:30:47;;;;;;;7.85;1.85;;;;;;;18.16;56.18;101407.00;5068546;28;20622;-65
2021/05/22 00:33:14;;;;;;;5.35;1.75;;;;;;;18.14;56.45;101423.94;5069249;28;20101;-65
2021/05/22 00:35:41;;;;;;;4.70;1.45;;;;;;;18.16;56.05;101424.81;5068726;28;20568;-64
2021/05/22 00:38:07;;;;;;;7.72;1.60;;;;;;;18.16;56.42;101433.72;5068437;28;20036;-66
2021/05/22 00:40:35;;;;;;;6.28;1.80;;;;;;;18.14;56.47;101424.81;5067713;28;20044;-64
2021/05/22 00:43:02;;;;;;;5.07;1.80;;;;;;;18.15;56.25;101420.38;5068966;28;20040;-65
2021/05/22 00:45:31;;;;;;;5.95;1.48;;;;;;;18.15;56.50;101407.91;5067494;28;20132;-65
2021/05/22 00:47:58;;;;;;;6.00;1.80;;;;;;;18.13;56.35;101407.00;5068161;28;20047;-66
2021/05/22 00:50:27;;;;;;;2.28;1.40;;;;;;;18.11;56.16;101402.59;5068926;28;20056;-65
2021/05/22 00:52:55;;;;;;;4.05;1.40;;;;;;;18.07;56.14;101404.38;5066784;28;20101;-65
2021/05/22 00:55:22;;;;;;;2.53;1.30;;;;;;;18.08;56.46;101410.59;5068939;28;20028;-65
2021/05/22 00:57:49;;;;;;;6.20;1.60;;;;;;;18.11;56.09;101414.16;5068234;28;20162;-65
2021/05/22 01:00:19;;;;;;;3.72;1.80;;;;;;;18.07;56.38;101408.81;5068446;28;20407;-66
2021/05/22 01:02:49;;;;;;;7.50;1.58;;;;;;;18.07;56.05;101411.50;5068839;28;20060;-65
2021/05/22 01:05:16;;;;;;;5.10;1.70;;;;;;;18.07;56.30;101411.50;5084116;28;20377;-65
2021/05/22 01:07:47;;;;;;;5.47;1.52;;;;;;;18.01;56.14;101409.75;5068442;28;20050;-65
2021/05/22 01:10:16;;;;;;;5.55;1.90;;;;;;;17.96;56.34;101408.88;5068780;28;20033;-65
2021/05/22 01:12:47;;;;;;;5.95;1.73;;;;;;;18.00;56.20;101401.72;5067865;28;20043;-65
2021/05/22 01:15:17;;;;;;;6.20;1.50;;;;;;;18.02;56.33;101391.94;5068259;28;20041;-65
2021/05/22 01:17:49;;;;;;;7.50;1.70;;;;;;;18.07;56.66;101382.09;5067748;28;20036;-64
2021/05/22 01:20:27;;;;;;;8.23;1.88;;;;;;;18.07;56.75;101388.34;5068797;28;20089;-65
2021/05/22 01:22:59;;;;;;;4.35;1.50;;;;;;;18.10;56.63;101395.47;5068245;28;20047;-65
2021/05/22 01:25:29;;;;;;;7.40;1.70;;;;;;;18.08;56.33;101402.59;5068715;28;20163;-65
2021/05/22 01:27:57;;;;;;;4.45;1.67;;;;;;;18.03;56.43;101407.06;5067359;28;20106;-65
2021/05/22 01:30:25;;;;;;;4.00;1.92;;;;;;;18.03;56.41;101405.28;5068069;28;20555;-65
2021/05/22 01:32:52;;;;;;;7.97;1.77;;;;;;;18.00;56.19;101397.28;5068120;28;20055;-65
2021/05/22 01:35:21;;;;;;;6.10;1.88;;;;;;;17.96;56.39;101400.88;5068133;28;20487;-65
2021/05/22 01:37:48;;;;;;;4.28;1.45;;;;;;;17.96;55.97;101391.97;5067405;28;20409;-65
2021/05/22 01:40:15;;;;;;;6.35;1.70;;;;;;;17.97;56.31;101389.28;5068883;28;20040;-65
2021/05/22 01:42:43;;;;;;;2.13;1.70;;;;;;;17.96;56.24;101382.16;5067997;28;20119;-65
2021/05/22 01:45:13;;;;;;;4.88;1.73;;;;;;;17.92;56.33;101370.59;5068012;28;20063;-65
2021/05/22 01:47:43;;;;;;;4.78;1.70;;;;;;;17.91;56.30;101392.00;5068376;28;20040;-65
2021/05/22 01:50:12;;;;;;;5.47;1.80;;;;;;;17.89;56.84;101402.69;5067486;28;20155;-65
2021/05/22 01:52:43;;;;;;;5.60;1.70;;;;;;;17.91;56.80;101408.03;5070794;28;20037;-65
2021/05/22 01:55:12;;;;;;;5.38;2.03;;;;;;;17.88;56.54;101398.22;5071722;28;20040;-65
2021/05/22 01:57:40;;;;;;;4.45;1.48;;;;;;;17.91;56.70;101402.69;5071065;28;20491;-65
2021/05/22 02:00:11;;;;;;;4.68;1.70;;;;;;;17.92;56.99;101391.06;5071883;28;20056;-65
2021/05/22 02:02:42;;;;;;;3.45;1.77;;;;;;;17.88;57.12;101392.00;5086694;28;20543;-65
2021/05/22 02:05:09;;;;;;;2.97;1.50;;;;;;;17.87;57.27;101391.09;5071037;28;20068;-65
2021/05/22 02:07:37;;;;;;;3.25;1.90;;;;;;;17.85;57.53;101387.53;5071628;28;20214;-65
2021/05/22 02:10:06;;;;;;;5.20;1.63;;;;;;;17.84;57.05;101390.25;5071149;28;20040;-65
2021/05/22 02:12:35;;;;;;;7.43;1.48;;;;;;;17.86;57.56;101381.31;5069937;28;20068;-65
2021/05/22 02:15:04;;;;;;;3.28;1.60;;;;;;;17.85;57.04;101386.69;5071136;28;20140;-65
2021/05/22 02:17:33;;;;;;;4.75;1.95;;;;;;;17.87;57.42;101398.22;5070451;28;20036;-65
2021/05/22 02:20:01;;;;;;;3.20;1.80;;;;;;;17.84;57.00;101404.47;5070315;28;20120;-65
2021/05/22 02:22:28;;;;;;;4.28;1.85;;;;;;;17.86;57.67;101402.69;5071234;28;20117;-65
2021/05/22 02:24:57;;;;;;;3.80;1.75;;;;;;;17.87;57.42;101400.91;5070645;28;20044;-65
2021/05/22 02:27:25;;;;;;;3.10;1.92;;;;;;;17.88;57.28;101408.03;5070930;28;20169;-66
2021/05/22 02:29:53;;;;;;;3.55;1.73;;;;;;;17.86;57.08;101400.00;5070831;28;20500;-65
2021/05/22 02:32:22;;;;;;;3.20;1.50;;;;;;;17.84;57.42;101398.25;5070546;28;20116;-65
2021/05/22 02:34:54;;;;;;;4.78;1.70;;;;;;;17.85;57.17;101389.34;5070965;28;20052;-65
2021/05/22 02:37:25;;;;;;;5.63;1.83;;;;;;;17.83;57.21;101384.00;5070775;28;20155;-65
2021/05/22 02:39:55;;;;;;;3.42;1.65;;;;;;;17.84;57.65;101383.13;5070814;28;20076;-65
2021/05/22 02:42:22;;;;;;;4.10;1.70;;;;;;;17.82;57.42;101394.69;5070588;28;20174;-65
2021/05/22 02:44:53;;;;;;;3.63;1.63;;;;;;;17.82;57.38;101400.91;5070533;28;20036;-65
2021/05/22 02:47:22;;;;;;;5.45;1.67;;;;;;;17.81;57.43;101404.47;5070935;28;20215;-65
2021/05/22 02:49:50;;;;;;;5.05;1.90;;;;;;;17.80;57.85;101409.81;5070615;28;20056;-65
2021/05/22 02:52:19;;;;;;;5.03;1.60;;;;;;;17.77;57.98;101416.09;5069748;28;20151;-66
2021/05/22 02:54:48;;;;;;;3.55;1.70;;;;;;;17.79;57.56;101419.63;5071087;28;20136;-66
2021/05/22 02:57:18;;;;;;;3.50;1.63;;;;;;;17.81;57.89;101408.94;5070147;28;20048;-65
2021/05/22 02:59:49;;;;;;;4.50;1.77;;;;;;;17.80;58.00;101412.50;5070319;28;20565;-64
2021/05/22 03:02:16;;;;;;;6.35;1.75;;;;;;;17.80;57.46;101418.72;5070689;28;20489;-65
2021/05/22 03:04:47;;;;;;;5.57;1.50;;;;;;;17.81;57.63;101411.59;5070553;28;20041;-65
2021/05/22 03:07:16;;;;;;;4.32;1.75;;;;;;;17.81;57.86;101409.81;5070395;28;20444;-65
2021/05/22 03:09:43;;;;;;;3.55;1.52;;;;;;;17.81;58.16;101406.25;5069749;28;20043;-65
2021/05/22 03:12:15;;;;;;;7.88;2.00;;;;;;;17.83;58.13;101404.47;5070055;28;20506;-65
2021/05/22 03:14:42;;;;;;;2.97;1.45;;;;;;;17.85;57.95;101414.25;5069940;28;20064;-65
2021/05/22 03:17:09;;;;;;;3.92;1.70;;;;;;;17.88;57.68;101411.59;5069758;28;20115;-65
2021/05/22 03:19:36;;;;;;;7.15;1.75;;;;;;;17.92;57.61;101417.78;5069967;28;20127;-66
2021/05/22 03:22:03;;;;;;;5.35;1.90;;;;;;;17.94;57.52;101418.69;5069931;28;20072;-65
2021/05/22 03:24:31;;;;;;;4.10;1.88;;;;;;;18.01;58.00;101415.09;5069663;28;20037;-65
2021/05/22 03:26:59;;;;;;;5.13;1.70;;;;;;;18.10;58.05;101409.72;5068815;28;20064;-65
2021/05/22 03:29:26;;;;;;;5.22;1.55;;;;;;;18.21;57.40;101413.22;5069939;28;20036;-66
2021/05/22 03:31:53;;;;;;;4.32;1.52;;;;;;;18.29;57.86;101419.41;5069763;28;20445;-65
2021/05/22 03:34:20;;;;;;;4.20;1.42;;;;;;;18.37;58.07;101423.81;5069580;28;20045;-65
2021/05/22 03:36:47;;;;;;;4.90;1.90;;;;;;;18.48;57.80;101409.50;5069720;28;20036;-64
2021/05/22 03:39:14;;;;;;;5.38;1.75;;;;;;;18.60;57.87;101414.78;5069820;28;20115;-65
2021/05/22 03:41:43;;;;;;;2.38;1.60;;;;;;;18.78;57.43;101402.16;5068971;28;20727;-64
2021/05/22 03:44:10;;;;;;;4.60;1.58;;;;;;;18.88;57.37;101412.81;5069448;28;20675;-64
2021/05/22 03:46:36;;;;;;;3.28;1.55;;;;;;;18.96;57.31;101413.63;5069378;28;20568;-65
2021/05/22 03:49:04;;;;;;;4.57;1.63;;;;;;;19.07;57.25;101411.75;5069098;28;20439;-64
2021/05/22 03:51:32;;;;;;;8.43;2.17;;;;;;;19.18;56.98;101410.75;5069333;28;20123;-65
2021/05/22 03:53:59;;;;;;;4.38;1.50;;;;;;;19.32;57.01;101406.16;5068175;28;20066;-64
2021/05/22 03:56:26;;;;;;;5.20;1.35;;;;;;;19.45;56.46;101415.84;5069285;28;20128;-64
2021/05/22 03:58:55;;;;;;;2.35;1.40;;;;;;;19.64;56.18;101414.75;5068727;28;20048;-65
2021/05/22 04:01:22;;;;;;;3.40;1.50;;;;;;;19.80;55.91;101431.56;5069162;28;20044;-65
2021/05/22 04:03:49;;;;;;;3.38;1.52;;;;;;;19.97;55.81;101415.25;5069074;28;20048;-65
2021/05/22 04:06:16;;;;;;;3.35;1.50;;;;;;;20.12;55.51;101415.97;5069905;28;20048;-65
2021/05/22 04:08:43;;;;;;;4.18;1.52;;;;;;;20.33;55.14;101411.25;5069436;28;20032;-65
2021/05/22 04:11:11;;;;;;;3.35;1.65;;;;;;;20.44;54.91;101407.50;5069073;28;20054;-65
2021/05/22 04:13:38;;;;;;;6.07;1.73;;;;;;;20.53;54.25;101409.19;5067904;28;20135;-65
2021/05/22 04:16:07;;;;;;;3.22;1.63;;;;;;;20.66;53.96;101414.34;5068170;28;20593;-65
2021/05/22 04:18:34;;;;;;;2.35;1.30;;;;;;;20.78;53.44;101407.88;5067288;28;20497;-65
2021/05/22 04:21:02;;;;;;;5.18;1.20;;;;;;;20.92;52.87;101413.03;5069108;28;20036;-65
2021/05/22 04:23:29;;;;;;;5.53;1.50;;;;;;;21.05;52.54;101420.84;5068861;28;20436;-65
2021/05/22 04:25:56;;;;;;;5.35;1.45;;;;;;;21.21;52.30;101416.13;5069088;28;20127;-65
2021/05/22 04:28:23;;;;;;;4.35;1.15;;;;;;;21.35;51.88;101403.34;5068514;28;20606;-65
2021/05/22 04:30:50;;;;;;;5.28;1.30;;;;;;;21.44;51.68;101418.41;5068632;28;20466;-65
2021/05/22 04:33:18;;;;;;;3.53;1.60;;;;;;;21.56;50.99;101412.81;5069592;28;20085;-65
2021/05/22 04:35:45;;;;;;;3.97;1.20;;;;;;;21.69;51.02;101417.03;5069287;28;20041;-65
2021/05/22 04:38:12;;;;;;;4.03;1.50;;;;;;;21.89;50.54;101400.50;5067994;28;20544;-65
2021/05/22 04:40:40;;;;;;;1.98;1.10;;;;;;;22.04;49.49;101405.59;5069100;28;20032;-65
2021/05/22 04:43:07;;;;;;;4.97;1.20;;;;;;;22.10;49.54;101413.53;5069010;28;20032;-65
2021/05/22 04:45:34;;;;;;;2.60;1.30;;;;;;;22.35;49.17;101430.00;5068803;28;20123;-65
2021/05/22 04:48:01;;;;;;;2.72;1.23;;;;;;;22.58;48.45;101434.84;5068399;28;20439;-65
2021/05/22 04:50:32;;;;;;;3.92;1.35;;;;;;;22.79;47.85;101452.34;5068820;28;20037;-65
2021/05/22 04:52:59;;;;;;;3.03;1.20;;;;;;;23.00;47.49;101457.22;5068596;28;20041;-65
2021/05/22 04:55:26;;;;;;;4.38;1.30;;;;;;;23.22;47.27;101452.19;5069069;28;20033;-65
2021/05/22 04:57:53;;;;;;;4.60;1.10;;;;;;;23.31;46.71;101442.03;5068374;28;20614;-65
2021/05/22 05:00:21;;;;;;;3.92;1.30;;;;;;;23.50;46.66;101445.16;5051313;28;20071;-65
2021/05/22 05:02:48;;;;;;;3.28;1.60;;;;;;;23.72;46.38;101443.69;5048806;28;20041;-65
2021/05/22 05:05:15;;;;;;;5.72;2.05;;;;;;;23.94;45.42;101453.88;5067529;28;20215;-65
2021/05/22 05:07:44;;;;;;;4.53;1.63;;;;;;;24.15;45.10;101455.94;5067812;28;20044;-65
2021/05/22 05:10:12;;;;;;;2.97;1.27;;;;;;;24.29;44.43;101456.44;5066640;28;20373;-66
2021/05/22 05:12:39;;;;;;;2.25;1.10;;;;;;;24.35;43.93;101458.94;5067963;28;20045;-66
2021/05/22 05:15:08;;;;;;;4.65;1.50;;;;;;;24.46;43.40;101467.63;5065402;28;20094;-65
2021/05/22 05:17:36;;;;;;;4.63;0.90;;;;;;;24.72;43.12;101480.31;5068150;28;20061;-66
2021/05/22 05:20:04;;;;;;;8.07;1.20;;;;;;;24.87;42.55;101487.06;5067931;28;20123;-66
2021/05/22 05:22:31;;;;;;;2.25;1.20;;;;;;;25.05;42.25;101485.59;5068296;28;20041;-65
2021/05/22 05:24:59;;;;;;;3.42;1.27;;;;;;;25.16;41.95;101472.63;5067624;28;20060;-65
2021/05/22 05:27:26;;;;;;;2.92;1.10;;;;;;;25.24;41.74;101467.84;5070675;28;20039;-65
2021/05/22 05:29:53;;;;;;;5.05;1.10;;;;;;;25.36;41.41;101464.72;5051978;28;20072;-65
2021/05/22 05:32:20;;;;;;;6.03;1.60;;;;;;;25.51;41.08;101464.19;5068396;28;20033;-65
2021/05/22 05:34:49;;;;;;;5.25;1.13;;;;;;;25.78;41.07;101482.19;5072103;28;20039;-64
2021/05/22 05:37:17;;;;;;;3.97;1.30;;;;;;;25.96;40.57;101487.88;5071470;28;20511;-65
2021/05/22 05:39:44;;;;;;;4.45;1.23;;;;;;;26.17;40.14;101489.78;5060429;28;20048;-64
2021/05/22 05:42:13;;;;;;;3.15;1.30;;;;;;;26.28;39.74;101498.41;5071520;28;20060;-65
2021/05/22 05:44:40;;;;;;;2.78;1.10;;;;;;;26.43;39.82;101487.00;5071644;28;20517;-65
2021/05/22 05:47:07;;;;;;;3.92;1.20;;;;;;;26.61;39.15;101479.09;5071003;28;20493;-65
2021/05/22 05:49:34;;;;;;;3.00;1.20;;;;;;;26.63;38.84;101499.78;5071595;28;20110;-65
2021/05/22 05:52:01;;;;;;;3.47;1.23;;;;;;;26.85;38.89;101502.50;5071486;28;20040;-65
2021/05/22 05:54:28;;;;;;;2.88;0.90;;;;;;;26.90;38.04;101495.13;5070568;28;20046;-65
2021/05/22 05:56:56;;;;;;;2.88;0.90;;;;;;;26.96;38.18;101498.47;5070911;28;20056;-65
2021/05/22 05:59:24;;;;;;;3.25;1.10;;;;;;;26.81;38.31;101488.22;5071281;28;20119;-65
2021/05/22 06:01:52;;;;;;;2.67;0.95;;;;;;;26.73;38.16;101508.41;5070616;28;20085;-65
2021/05/22 06:04:19;;;;;;;3.92;1.17;;;;;;;26.96;37.96;101503.91;5070030;28;20045;-65
2021/05/22 06:06:47;;;;;;;4.10;1.13;;;;;;;27.04;37.82;101518.97;5071758;28;20036;-65
2021/05/22 06:09:14;;;;;;;4.28;1.13;;;;;;;27.07;37.91;101529.66;5070842;28;20465;-66
2021/05/22 06:11:41;;;;;;;1.73;0.80;;;;;;;27.27;37.62;101518.91;5068854;28;20436;-66
2021/05/22 06:14:14;;;;;;;3.97;1.02;;;;;;;27.31;37.83;101515.97;5069472;28;20120;-66
2021/05/22 06:16:42;;;;;;;2.55;1.45;;;;;;;27.47;37.56;101515.34;5070939;28;20036;-65
2021/05/22 06:19:09;;;;;;;3.45;0.95;;;;;;;27.44;37.25;101529.06;5066994;28;20048;-65
2021/05/22 06:21:37;;;;;;;2.40;1.13;;;;;;;27.39;37.62;101529.22;5067607;28;20116;-66
2021/05/22 06:24:06;;;;;;;2.00;0.93;;;;;;;27.49;38.01;101527.03;5068544;28;20024;-65
2021/05/22 06:26:34;;;;;;;2.10;0.80;;;;;;;27.70;38.12;101526.13;5069820;28;20040;-66
2021/05/22 06:29:01;;;;;;;3.58;1.23;;;;;;;27.55;37.76;101526.78;5061910;28;20029;-65
2021/05/22 06:31:28;;;;;;;5.38;1.13;;;;;;;27.48;38.03;101527.97;5057646;28;20069;-66
2021/05/22 06:33:56;;;;;;;4.38;1.63;;;;;;;27.38;38.14;101554.59;5066958;28;20048;-66
2021/05/22 06:36:23;;;;;;;2.70;1.00;;;;;;;27.29;38.03;101544.13;5069122;28;20044;-66
2021/05/22 06:38:50;;;;;;;2.33;0.90;;;;;;;27.35;38.13;101541.16;5068991;28;20629;-66
2021/05/22 06:41:17;;;;;;;6.25;1.45;;;;;;;27.30;38.41;101530.53;5071090;28;20448;-66
2021/05/22 06:43:44;;;;;;;1.42;0.98;;;;;;;27.28;38.44;101535.13;5067880;28;20454;-66
2021/05/22 06:46:46;;;;;;;2.58;1.00;;;;;;;27.53;38.47;101542.25;5068019;28;20155;-66
2021/05/22 06:49:02;;;;;;;6.85;1.38;;;;;;;27.70;38.21;101528.84;5067663;28;20088;-65
2021/05/22 06:51:29;;;;;;;1.77;0.90;;;;;;;27.68;38.02;101544.31;5068442;28;20131;-66
2021/05/22 06:53:56;;;;;;;5.80;0.73;;;;;;;27.91;38.66;101544.19;5070521;28;20048;-66
2021/05/22 06:56:23;;;;;;;4.15;1.20;;;;;;;28.11;37.83;101540.59;5070609;28;20055;-65
2021/05/22 06:58:50;;;;;;;2.13;0.80;;;;;;;27.93;37.39;101547.72;5069227;28;20069;-65
2021/05/22 07:01:17;;;;;;;2.25;0.98;;;;;;;27.73;37.85;101537.75;5070955;28;20119;-65
2021/05/22 07:03:44;;;;;;;3.45;1.40;;;;;;;27.79;37.67;101538.41;5069301;28;20040;-66
2021/05/22 07:06:13;;;;;;;4.85;1.20;;;;;;;27.87;37.86;101511.81;5070188;28;20056;-65
2021/05/22 07:08:40;;;;;;;5.80;1.15;;;;;;;27.92;37.73;101507.06;5069951;28;20099;-65
2021/05/22 07:11:08;;;;;;;4.68;0.98;;;;;;;27.79;37.38;101514.00;5070326;28;20128;-65
2021/05/22 07:13:35;;;;;;;3.15;1.10;;;;;;;27.74;37.48;101512.38;5069513;28;20131;-66
2021/05/22 07:16:04;;;;;;;3.10;1.30;;;;;;;27.77;37.30;101531.22;5070022;28;20043;-65
2021/05/22 07:18:31;;;;;;;2.22;1.00;;;;;;;27.78;37.25;101540.25;5068839;28;20045;-65
2021/05/22 07:20:58;;;;;;;3.28;1.45;;;;;;;27.96;36.66;101531.28;5069639;28;20135;-66
2021/05/22 07:23:27;;;;;;;5.97;1.30;;;;;;;28.10;36.44;101533.38;5069119;28;20037;-66
2021/05/22 07:25:55;;;;;;;2.45;1.15;;;;;;;28.14;36.67;101524.22;5069373;28;20040;-65
2021/05/22 07:28:22;;;;;;;2.35;1.17;;;;;;;28.19;36.58;101526.72;5069005;28;20063;-65
2021/05/22 07:30:49;;;;;;;4.72;1.20;;;;;;;28.30;35.98;101532.53;5069390;28;20044;-66
2021/05/22 07:33:17;;;;;;;6.72;1.17;;;;;;;28.33;35.67;101530.56;5069444;28;20032;-65
2021/05/22 07:35:44;;;;;;;3.53;1.10;;;;;;;28.33;35.69;101538.72;5069694;28;20044;-65
2021/05/22 07:38:11;;;;;;;2.20;1.10;;;;;;;28.31;35.74;101531.56;5069301;28;20032;-64
2021/05/22 07:40:39;;;;;;;5.40;1.30;;;;;;;28.23;36.16;101540.06;5069236;28;20079;-65
2021/05/22 07:43:06;;;;;;;4.05;1.17;;;;;;;28.32;36.69;101544.22;5069545;28;20036;-65
2021/05/22 07:45:33;;;;;;;5.28;1.42;;;;;;;28.51;36.45;101542.41;5069677;28;20183;-65
2021/05/22 07:48:00;;;;;;;3.65;1.42;;;;;;;28.48;36.30;101535.31;5068674;28;20032;-65
2021/05/22 07:50:28;;;;;;;2.95;0.95;;;;;;;28.48;36.50;101546.16;5068328;28;20120;-66
2021/05/22 07:52:55;;;;;;;3.40;0.85;;;;;;;28.60;35.97;101546.53;5069653;28;20044;-65
2021/05/22 07:55:22;;;;;;;3.35;1.30;;;;;;;28.77;36.59;101552.97;5069227;28;20036;-65
2021/05/22 07:57:50;;;;;;;5.00;1.50;;;;;;;28.84;36.26;101564.44;5070053;28;20495;-65
2021/05/22 08:00:18;;;;;;;1.95;0.80;;;;;;;28.65;35.88;101548.09;5069501;28;20044;-65
2021/05/22 08:02:45;;;;;;;2.03;0.90;;;;;;;28.51;36.10;101570.47;5069196;28;20041;-65
2021/05/22 08:05:13;;;;;;;4.65;1.10;;;;;;;28.42;36.08;101556.44;5068122;28;20040;-65
2021/05/22 08:07:40;;;;;;;2.50;0.90;;;;;;;28.26;36.33;101558.06;5069114;28;20047;-65
2021/05/22 08:10:09;;;;;;;3.58;0.98;;;;;;;28.28;36.12;101543.47;5068607;28;20139;-65
2021/05/22 08:12:36;;;;;;;2.70;0.82;;;;;;;27.95;37.34;101528.66;5068790;28;20045;-65
2021/05/22 08:15:05;;;;;;;2.40;1.05;;;;;;;27.81;37.34;101537.41;5068064;28;20128;-66
2021/05/22 08:17:33;;;;;;;4.38;1.00;;;;;;;27.47;37.67;101539.75;5066990;28;20408;-65
2021/05/22 08:20:00;;;;;;;4.57;1.10;;;;;;;27.32;37.70;101539.44;5068828;28;20057;-65
2021/05/22 08:22:28;;;;;;;1.75;1.00;;;;;;;27.36;37.83;101530.25;5068541;28;20067;-65
2021/05/22 08:24:55;;;;;;;2.30;0.88;;;;;;;27.60;37.85;101547.34;5068843;28;20136;-66
2021/05/22 08:27:22;;;;;;;2.22;0.90;;;;;;;27.85;37.61;101539.03;5066002;28;20036;-65
2021/05/22 08:29:49;;;;;;;1.67;0.70;;;;;;;28.18;37.95;101547.53;5069138;28;20036;-65
2021/05/22 08:32:17;;;;;;;3.35;0.95;;;;;;;28.43;36.77;101541.88;5068654;28;20376;-65
2021/05/22 08:34:44;;;;;;;2.72;0.77;;;;;;;28.53;36.35;101535.06;5068867;28;20047;-65
2021/05/22 08:37:13;;;;;;;1.67;0.93;;;;;;;28.43;36.78;101544.59;5068654;28;20679;-65
2021/05/22 08:39:44;;;;;;;4.70;1.00;;;;;;;28.41;36.94;101560.09;5069003;28;20056;-65
2021/05/22 08:42:15;;;;;;;2.85;1.05;;;;;;;28.04;37.26;101559.00;5068906;28;20488;-65
2021/05/22 08:44:42;;;;;;;3.33;0.90;;;;;;;28.32;37.03;101557.78;5068740;28;20056;-65
2021/05/22 08:47:11;;;;;;;3.13;1.05;;;;;;;28.16;37.10;101564.88;5068522;28;20048;-65
2021/05/22 08:49:42;;;;;;;3.72;1.00;;;;;;;28.06;37.14;101556.22;5068065;28;20040;-66
2021/05/22 08:52:14;;;;;;;2.17;0.90;;;;;;;28.27;36.58;101563.44;5068166;28;20487;-65
2021/05/22 08:54:41;;;;;;;6.07;1.55;;;;;;;28.27;36.90;101560.72;5068828;28;20060;-64
2021/05/22 08:57:09;;;;;;;4.45;1.33;;;;;;;28.34;36.53;101564.06;5068010;28;20040;-65
2021/05/22 08:59:41;;;;;;;3.13;1.20;;;;;;;28.21;36.94;101573.69;5068971;28;20139;-65
2021/05/22 09:02:08;;;;;;;3.38;0.80;;;;;;;27.87;37.15;101574.25;5072919;28;20049;-65
2021/05/22 09:05:12;;;;;;;4.70;1.30;;;;;;;27.60;37.27;101566.34;5072556;28;20373;-65
2021/05/22 09:07:40;;;;;;;4.30;1.10;;;;;;;27.97;37.17;101573.78;5072475;28;20053;-65
2021/05/22 09:10:14;;;;;;;3.20;0.95;;;;;;;28.22;37.48;101556.47;5072307;28;20119;-65
2021/05/22 09:12:43;;;;;;;4.18;0.90;;;;;;;28.42;37.12;101561.88;5056230;28;20060;-66
2021/05/22 09:15:13;;;;;;;5.18;1.05;;;;;;;28.82;36.48;101564.50;5072553;28;20064;-65
2021/05/22 09:17:48;;;;;;;2.08;0.93;;;;;;;28.59;36.18;101563.81;5072233;28;22327;-65
2021/05/22 09:20:28;;;;;;;3.05;1.17;;;;;;;28.61;35.92;101572.78;5072034;28;20044;-65
2021/05/22 09:23:03;;;;;;;5.32;1.30;;;;;;;28.63;36.46;101577.16;5066891;28;20047;-64
2021/05/22 09:25:32;;;;;;;2.47;0.88;;;;;;;28.81;36.30;101564.59;5071983;28;20224;-64
2021/05/22 09:27:59;;;;;;;4.93;1.15;;;;;;;29.04;35.61;101568.91;5071867;28;20036;-65
2021/05/22 09:30:28;;;;;;;4.28;1.15;;;;;;;29.11;35.61;101574.00;5072136;28;20123;-65
2021/05/22 09:32:55;;;;;;;5.13;1.17;;;;;;;29.19;35.74;101566.34;5071953;28;20045;-65
2021/05/22 09:35:25;;;;;;;2.90;1.00;;;;;;;29.32;35.87;101566.63;5072069;28;20464;-65
2021/05/22 09:37:53;;;;;;;1.67;0.90;;;;;;;29.09;35.73;101565.03;5071967;28;20041;-66
2021/05/22 09:40:23;;;;;;;2.25;0.88;;;;;;;29.25;35.78;101576.94;5071775;28;20094;-65
2021/05/22 09:42:51;;;;;;;5.28;0.90;;;;;;;29.37;35.24;101570.03;5072023;28;20571;-66
2021/05/22 09:45:28;;;;;;;4.28;0.90;;;;;;;29.45;34.69;101575.09;5072542;28;20535;-65
2021/05/22 09:47:57;;;;;;;2.80;0.95;;;;;;;29.35;35.06;101581.94;5071261;28;20124;-65
2021/05/22 09:50:34;;;;;;;1.88;0.77;;;;;;;29.11;35.11;101576.72;5071454;28;20499;-65
2021/05/22 09:53:03;;;;;;;1.80;1.02;;;;;;;29.22;35.49;101574.34;5071144;28;20049;-65
2021/05/22 09:55:30;;;;;;;3.15;0.88;;;;;;;29.31;34.80;101571.19;5071713;28;20496;-65
2021/05/22 09:57:57;;;;;;;3.55;0.70;;;;;;;29.30;34.60;101568.53;5071784;28;20395;-65
2021/05/22 10:00:26;;;;;;;2.28;0.90;;;;;;;29.18;34.58;101559.16;5071104;28;20280;-65
2021/05/22 10:02:56;;;;;;;3.38;1.17;;;;;;;29.01;34.64;101541.88;5071180;28;20076;-65
2021/05/22 10:05:25;;;;;;;3.75;0.82;;;;;;;28.82;35.09;101571.78;5071529;28;20078;-66
2021/05/22 10:07:54;;;;;;;2.50;0.85;;;;;;;28.78;34.61;101553.84;5071178;28;20080;-65
2021/05/22 10:10:22;;;;;;;3.70;0.98;;;;;;;28.60;34.37;101544.72;5069936;28;20048;-65
2021/05/22 10:12:49;;;;;;;3.83;1.10;;;;;;;28.64;34.74;101553.59;5071231;28;20116;-65
2021/05/22 10:15:18;;;;;;;2.95;1.17;;;;;;;28.48;35.47;101567.03;5071424;28;20052;-66
2021/05/22 10:17:46;;;;;;;6.90;1.40;;;;;;;28.42;35.39;101551.84;5071341;28;20551;-66
2021/05/22 10:20:14;;;;;;;4.65;1.40;;;;;;;28.34;35.25;101559.50;5071144;28;20040;-66
2021/05/22 10:22:43;;;;;;;4.60;1.00;;;;;;;28.43;34.46;101555.47;5071132;28;20045;-66
2021/05/22 10:25:12;;;;;;;3.03;1.65;;;;;;;28.32;35.12;101550.53;5070975;28;20519;-66
2021/05/22 10:27:39;;;;;;;5.25;1.60;;;;;;;28.19;35.07;101557.47;5070762;28;20457;-65
2021/05/22 10:30:08;;;;;;;2.80;1.92;;;;;;;28.02;35.08;101546.44;5071197;28;20033;-66
2021/05/22 10:32:37;;;;;;;2.92;1.30;;;;;;;27.85;35.70;101560.75;5071098;28;20503;-66
2021/05/22 10:35:09;;;;;;;1.67;0.85;;;;;;;28.10;35.31;101552.41;5070458;28;20563;-66
2021/05/22 10:37:45;;;;;;;3.67;1.20;;;;;;;28.18;34.14;101560.25;5071113;28;20041;-65
2021/05/22 10:40:14;;;;;;;2.90;1.17;;;;;;;28.19;34.16;101551.16;5070890;28;20082;-65
2021/05/22 10:42:47;;;;;;;1.50;0.95;;;;;;;28.11;33.40;101551.44;5069188;28;20045;-65
2021/05/22 10:45:37;;;;;;;2.95;1.00;;;;;;;28.12;34.17;101554.09;5070906;28;20407;-65
2021/05/22 10:48:07;;;;;;;1.40;1.10;;;;;;;28.29;33.50;101526.22;5070589;28;20604;-65
2021/05/22 10:50:41;;;;;;;1.83;1.00;;;;;;;28.54;33.09;101543.16;5070496;28;20037;-65
2021/05/22 10:53:25;;;;;;;4.97;1.35;;;;;;;28.89;33.04;101546.94;5070807;28;20045;-65
2021/05/22 10:56:13;;;;;;;3.33;1.00;;;;;;;29.09;32.07;101554.13;5069188;28;20052;-66
2021/05/22 10:59:03;;;;;;;3.90;1.70;;;;;;;29.28;31.92;101537.78;5070576;28;20035;-66
2021/05/22 11:01:35;;;;;;;3.60;0.90;;;;;;;29.38;31.64;101538.25;5070314;28;20051;-65
2021/05/22 11:04:43;;;;;;;2.83;0.95;;;;;;;29.54;31.69;101544.66;5070440;28;20175;-66
2021/05/22 11:07:21;;;;;;;2.75;1.25;;;;;;;29.85;31.11;101534.00;5070396;28;20064;-66
2021/05/22 11:09:56;;;;;;;3.33;0.90;;;;;;;30.06;30.65;101532.00;5069065;28;20052;-65
2021/05/22 11:12:47;;;;;;;2.35;0.95;;;;;;;30.31;30.06;101539.75;5069576;28;20496;-65
2021/05/22 11:15:50;;;;;;;7.90;1.08;;;;;;;30.32;29.58;101536.06;5069743;28;20080;-65
2021/05/22 11:18:19;;;;;;;1.70;0.82;;;;;;;30.17;29.33;101529.59;5064488;28;20032;-66
2021/05/22 11:21:18;;;;;;;7.68;1.17;;;;;;;30.29;29.33;101523.47;5069731;28;20123;-64
2021/05/22 11:24:05;;;;;;;3.97;1.05;;;;;;;30.29;29.46;101525.31;5065538;28;20037;-66
2021/05/22 11:26:56;;;;;;;4.70;1.20;;;;;;;30.30;29.37;101525.22;5069809;28;20641;-65
2021/05/22 11:29:40;;;;;;;4.30;1.10;;;;;;;30.35;29.20;101528.59;5058513;28;20040;-65
2021/05/22 11:32:48;;;;;;;2.50;1.10;;;;;;;30.48;28.85;101523.34;5048934;28;20036;-65
2021/05/22 11:35:44;;;;;;;7.22;2.05;;;;;;;30.53;29.12;101504.91;5069646;28;20441;-66